SLAM7: Spring River at La Russell, MO

                                SHEF ID:       SLAM7     Spring River at La Russell, MO
STATION TYPE:

STAGE RIV-FLOW
ft cfs
Ccp-Rev Ccp-Rev
(America/Chicago)
03/10 00:00 2.56 405
03/10 01:00 2.55 401
03/10 02:00 2.54 398
03/10 03:00 2.54 398
03/10 04:00 2.53 394
03/10 05:00 2.52 391
03/10 06:00 2.52 391
03/10 07:00 2.51 387
03/10 08:00 2.51 387
03/10 09:00 2.49 381
03/10 10:00 2.48 377
03/10 11:00 2.45 367
03/10 12:00 2.45 367
03/10 13:00 2.44 364
03/10 14:00 2.38 344
03/10 15:00 2.45 367
03/10 16:00 2.43 361
03/10 17:00 2.42 357
03/10 18:00 2.39 348
03/10 19:00 2.42 357
03/10 20:00 2.42 357
03/10 21:00 2.41 354
03/10 22:00 2.40 351
03/10 23:00 2.37 341
Data processed at Wed 11Mar2026 04:40 GMT

NOTICE: If you are parsing this page

Please convert to using our Data API. Starting early 2026 we will be migrating to: https://water.usace.army.mil with modern pages rendered in JavaScript. When this migration completes you will no longer be able to scrape this page! CWMSDataAPI (CDA)

Timeseries IDs (TSIDs)

TSIDs used from left to right in the data table
LARU.Stage.Inst.1Hour.0.Ccp-Rev
LARU.Flow.Inst.1Hour.0.Ccp-Rev

                            

All information presented herein is the property of the government of the United States of America and may be revised or deleted at any time without prior notice. Dissemination of this information without the expressed written consent of the Public Affairs Office, Tulsa District U.S. Army Corps of Engineers is strictly prohibited. These data are gathered electronically and, as presented, have NOT undergone any form of quality control. These data are NOT guaranteed to be valid or correct.